createdAt,value
2017-12-04T00:00:25.511Z,0
2017-12-04T00:01:25.776Z,0
2017-12-04T00:02:25.521Z,0
2017-12-04T00:03:25.802Z,0
2017-12-04T00:04:25.543Z,0
2017-12-04T00:05:25.816Z,0
2017-12-04T00:06:25.830Z,0
2017-12-04T00:07:25.901Z,0
2017-12-04T00:08:25.587Z,0
2017-12-04T00:09:25.871Z,0
2017-12-04T00:10:25.606Z,0
2017-12-04T00:11:25.355Z,0
2017-12-04T00:12:25.628Z,0
2017-12-04T00:13:25.914Z,0
2017-12-04T00:14:25.922Z,0
2017-12-04T00:15:25.926Z,0
2017-12-04T00:16:25.942Z,0
2017-12-04T00:17:25.965Z,0
2017-12-04T00:18:25.740Z,0
2017-12-04T00:19:25.976Z,0
2017-12-04T00:20:25.976Z,0
2017-12-04T00:21:25.992Z,0
2017-12-04T00:22:26.016Z,0
2017-12-04T00:23:25.757Z,0
2017-12-04T00:24:25.760Z,0
2017-12-04T00:25:25.506Z,0
2017-12-04T00:26:26.047Z,0
2017-12-04T00:27:25.799Z,0
2017-12-04T00:28:26.070Z,0
2017-12-04T00:29:25.811Z,0
2017-12-04T00:30:26.097Z,0
2017-12-04T00:31:26.108Z,0
2017-12-04T00:32:25.847Z,0
2017-12-04T00:33:26.142Z,0
2017-12-04T00:34:26.133Z,0
2017-12-04T00:35:26.154Z,0
2017-12-04T00:36:25.888Z,0
2017-12-04T00:37:25.903Z,0
2017-12-04T00:38:26.175Z,0
2017-12-04T00:39:26.197Z,0
2017-12-04T00:40:25.662Z,0
2017-12-04T00:41:25.941Z,0
2017-12-04T00:42:25.956Z,0
2017-12-04T00:43:26.232Z,0
2017-12-04T00:44:25.979Z,0
2017-12-04T00:45:26.260Z,0
2017-12-04T00:46:26.276Z,0
2017-12-04T00:47:26.276Z,0
2017-12-04T00:48:26.020Z,0
2017-12-04T00:49:26.294Z,0
2017-12-04T00:50:26.034Z,0
2017-12-04T00:51:26.366Z,0
2017-12-04T00:52:25.792Z,0
2017-12-04T00:53:26.337Z,0
2017-12-04T00:54:26.350Z,0
2017-12-04T00:55:26.096Z,0
2017-12-04T00:56:26.364Z,0
2017-12-04T00:57:26.379Z,0
2017-12-04T00:58:26.125Z,0
2017-12-04T00:59:26.139Z,0
2017-12-04T01:00:26.406Z,0
2017-12-04T01:01:26.156Z,0
2017-12-04T01:02:25.905Z,0
2017-12-04T01:03:26.177Z,0
2017-12-04T01:04:26.197Z,0
2017-12-04T01:05:26.458Z,0
2017-12-04T01:06:26.482Z,0
2017-12-04T01:07:26.485Z,0
2017-12-04T01:08:26.506Z,0
2017-12-04T01:09:26.246Z,0
2017-12-04T01:10:26.254Z,0
2017-12-04T01:11:26.533Z,0
2017-12-04T01:12:26.271Z,0
2017-12-04T01:13:26.282Z,0
2017-12-04T01:14:26.565Z,0
2017-12-04T01:15:26.623Z,0
2017-12-04T01:16:26.057Z,0
2017-12-04T01:17:26.597Z,0
2017-12-04T01:18:26.613Z,0
2017-12-04T01:19:26.612Z,0
2017-12-04T01:20:26.356Z,0
2017-12-04T01:21:26.629Z,0
2017-12-04T01:22:26.649Z,0
2017-12-04T01:23:26.388Z,0
2017-12-04T01:24:26.399Z,0
2017-12-04T01:25:26.413Z,0
2017-12-04T01:26:26.690Z,0
2017-12-04T01:27:26.430Z,0
2017-12-04T01:28:26.181Z,0
2017-12-04T01:29:26.454Z,0
2017-12-04T01:30:26.742Z,0
2017-12-04T01:31:26.748Z,0
2017-12-04T01:32:26.769Z,0
2017-12-04T01:33:26.769Z,0
2017-12-04T01:34:26.778Z,0
2017-12-04T01:35:26.795Z,0
2017-12-04T01:36:26.792Z,0
2017-12-04T01:37:26.545Z,0
2017-12-04T01:38:29.365Z,0
2017-12-04T01:39:26.302Z,0
2017-12-04T01:40:26.849Z,0
2017-12-04T01:41:26.863Z,0
2017-12-04T01:42:26.860Z,0
2017-12-04T01:43:26.874Z,0
2017-12-04T01:44:26.898Z,0
2017-12-04T01:45:26.626Z,0
2017-12-04T01:46:26.643Z,0
2017-12-04T01:47:26.918Z,0
2017-12-04T01:48:26.689Z,0
2017-12-04T01:49:26.951Z,0
2017-12-04T01:50:26.952Z,0
2017-12-04T01:51:26.981Z,0
2017-12-04T01:52:26.971Z,0
2017-12-04T01:53:26.448Z,0
2017-12-04T01:54:26.733Z,0
2017-12-04T01:55:27.006Z,0
2017-12-04T01:56:27.017Z,0
2017-12-04T01:57:27.022Z,0
2017-12-04T01:58:26.771Z,0
2017-12-04T01:59:26.782Z,0
2017-12-04T02:00:27.065Z,0
2017-12-04T02:01:27.081Z,0
2017-12-04T02:02:26.547Z,0
2017-12-04T02:03:27.103Z,0
2017-12-04T02:04:26.837Z,0
2017-12-04T02:05:26.845Z,0
2017-12-04T02:06:27.141Z,0
2017-12-04T02:07:26.868Z,0
2017-12-04T02:08:26.880Z,0
2017-12-04T02:09:26.896Z,0
2017-12-04T02:10:27.180Z,0
2017-12-04T02:11:27.181Z,0
2017-12-04T02:12:27.198Z,0
2017-12-04T02:13:27.202Z,0
2017-12-04T02:14:27.211Z,0
2017-12-04T02:15:26.957Z,0
2017-12-04T02:16:27.238Z,0
2017-12-04T02:17:27.241Z,0
2017-12-04T02:18:27.264Z,0
2017-12-04T02:19:27.038Z,0
2017-12-04T02:20:27.281Z,0
2017-12-04T02:21:27.291Z,0
2017-12-04T02:22:27.297Z,0
2017-12-04T02:23:27.041Z,0
2017-12-04T02:24:27.052Z,0
2017-12-04T02:25:27.064Z,0
2017-12-04T02:26:27.081Z,0
2017-12-04T02:27:27.086Z,0
2017-12-04T02:28:27.361Z,0
2017-12-04T02:29:27.426Z,0
2017-12-04T02:30:27.397Z,0
2017-12-04T02:31:27.230Z,0
2017-12-04T02:32:27.157Z,0
2017-12-04T02:33:27.150Z,0
2017-12-04T02:34:27.431Z,0
2017-12-04T02:35:27.441Z,0
2017-12-04T02:36:27.459Z,0
2017-12-04T02:37:27.473Z,0
2017-12-04T02:38:27.230Z,0
2017-12-04T02:39:27.516Z,0
2017-12-04T02:40:26.966Z,0
2017-12-04T02:41:27.504Z,0
2017-12-04T02:42:26.978Z,0
2017-12-04T02:43:27.258Z,0
2017-12-04T02:44:27.534Z,0
2017-12-04T02:45:27.816Z,0
2017-12-04T02:46:27.571Z,0
2017-12-04T02:47:27.578Z,0
2017-12-04T02:48:27.577Z,0
2017-12-04T02:49:27.593Z,0
2017-12-04T02:50:27.340Z,0
2017-12-04T02:51:27.627Z,0
2017-12-04T02:52:27.639Z,0
2017-12-04T02:53:27.103Z,0
2017-12-04T02:54:27.647Z,0
2017-12-04T02:55:27.389Z,0
2017-12-04T02:56:27.403Z,0
2017-12-04T02:57:27.680Z,0
2017-12-04T02:58:27.459Z,0
2017-12-04T02:59:27.164Z,0
2017-12-04T03:00:27.707Z,0
2017-12-04T03:01:27.768Z,0
2017-12-04T03:02:27.462Z,0
2017-12-04T03:03:27.478Z,0
2017-12-04T03:04:27.765Z,0
2017-12-04T03:05:27.495Z,0
2017-12-04T03:06:27.506Z,0
2017-12-04T03:07:27.783Z,0
2017-12-04T03:08:27.525Z,0
2017-12-04T03:09:27.850Z,0
2017-12-04T03:10:27.823Z,0
2017-12-04T03:11:27.561Z,0
2017-12-04T03:12:27.570Z,0
2017-12-04T03:13:27.850Z,0
2017-12-04T03:14:27.857Z,0
2017-12-04T03:15:27.868Z,0
2017-12-04T03:16:27.878Z,0
2017-12-04T03:17:27.357Z,0
2017-12-04T03:18:27.902Z,0
2017-12-04T03:19:27.917Z,0
2017-12-04T03:20:27.655Z,0
2017-12-04T03:21:27.937Z,0
2017-12-04T03:22:27.673Z,0
2017-12-04T03:23:27.690Z,0
2017-12-04T03:24:27.976Z,0
2017-12-04T03:25:27.984Z,0
2017-12-04T03:26:27.722Z,0
2017-12-04T03:27:27.733Z,0
2017-12-04T03:28:27.754Z,0
2017-12-04T03:29:27.759Z,0
2017-12-04T03:30:28.113Z,0
2017-12-04T03:31:28.058Z,0
2017-12-04T03:32:27.791Z,0
2017-12-04T03:33:27.792Z,0
2017-12-04T03:34:27.548Z,0
2017-12-04T03:35:27.825Z,0
2017-12-04T03:36:27.831Z,0
2017-12-04T03:37:27.842Z,0
2017-12-04T03:38:27.887Z,0
2017-12-04T03:39:28.127Z,0
2017-12-04T03:40:28.140Z,0
2017-12-04T03:41:28.152Z,0
2017-12-04T03:42:28.158Z,0
2017-12-04T03:43:28.167Z,0
2017-12-04T03:44:28.181Z,0
2017-12-04T03:45:27.655Z,0
2017-12-04T03:46:27.933Z,0
2017-12-04T03:47:28.217Z,0
2017-12-04T03:48:28.220Z,0
2017-12-04T03:49:28.237Z,0
2017-12-04T03:50:27.982Z,0
2017-12-04T03:51:28.265Z,0
2017-12-04T03:52:28.004Z,0
2017-12-04T03:53:28.014Z,0
2017-12-04T03:54:28.292Z,0
2017-12-04T03:55:28.037Z,0
2017-12-04T03:56:28.313Z,0
2017-12-04T03:57:28.049Z,0
2017-12-04T03:58:28.062Z,0
2017-12-04T03:59:28.343Z,0
2017-12-04T04:00:27.819Z,0
2017-12-04T04:01:28.365Z,0
2017-12-04T04:02:28.115Z,0
2017-12-04T04:03:28.388Z,0
2017-12-04T04:04:28.125Z,0
2017-12-04T04:05:28.402Z,0
2017-12-04T04:06:27.875Z,0
2017-12-04T04:07:28.428Z,0
2017-12-04T04:08:28.444Z,0
2017-12-04T04:09:28.181Z,0
2017-12-04T04:10:28.456Z,0
2017-12-04T04:11:28.471Z,0
2017-12-04T04:12:28.483Z,0
2017-12-04T04:13:28.492Z,0
2017-12-04T04:14:28.506Z,0
2017-12-04T04:15:27.986Z,0
2017-12-04T04:16:28.264Z,0
2017-12-04T04:17:28.272Z,0
2017-12-04T04:18:28.554Z,0
2017-12-04T04:19:28.551Z,0
2017-12-04T04:20:28.297Z,0
2017-12-04T04:21:28.310Z,0
2017-12-04T04:22:28.317Z,0
2017-12-04T04:23:28.608Z,0
2017-12-04T04:24:28.346Z,0
2017-12-04T04:25:28.380Z,0
2017-12-04T04:26:28.092Z,0
2017-12-04T04:27:28.640Z,0
2017-12-04T04:28:28.647Z,0
2017-12-04T04:29:28.399Z,0
2017-12-04T04:30:28.673Z,0
2017-12-04T04:31:27.882Z,0
2017-12-04T04:32:28.421Z,0
2017-12-04T04:33:28.434Z,0
2017-12-04T04:34:28.713Z,0
2017-12-04T04:35:28.739Z,0
2017-12-04T04:36:28.738Z,0
2017-12-04T04:37:28.743Z,0
2017-12-04T04:38:28.484Z,0
2017-12-04T04:39:28.776Z,0
2017-12-04T04:40:28.774Z,0
2017-12-04T04:41:28.255Z,0
2017-12-04T04:42:28.527Z,0
2017-12-04T04:43:28.275Z,0
2017-12-04T04:44:28.553Z,0
2017-12-04T04:45:28.827Z,0
2017-12-04T04:46:28.839Z,0
2017-12-04T04:47:28.317Z,0
2017-12-04T04:48:28.861Z,0
2017-12-04T04:49:28.611Z,0
2017-12-04T04:50:28.620Z,0
2017-12-04T04:51:28.896Z,0
2017-12-04T04:52:28.635Z,0
2017-12-04T04:53:28.914Z,0
2017-12-04T04:54:28.930Z,0
2017-12-04T04:55:28.676Z,0
2017-12-04T04:56:28.682Z,0
2017-12-04T04:57:28.691Z,0
2017-12-04T04:58:28.975Z,0
2017-12-04T04:59:28.976Z,0
2017-12-04T05:00:28.452Z,0
2017-12-04T05:01:28.734Z,0
2017-12-04T05:02:29.008Z,0
2017-12-04T05:03:28.752Z,0
2017-12-04T05:04:28.768Z,0
2017-12-04T05:05:28.777Z,0
2017-12-04T05:06:29.084Z,0
2017-12-04T05:07:28.803Z,0
2017-12-04T05:08:29.089Z,0
2017-12-04T05:09:29.091Z,0
2017-12-04T05:10:29.093Z,0
2017-12-04T05:11:29.113Z,0
2017-12-04T05:12:28.852Z,0
2017-12-04T05:13:28.860Z,0
2017-12-04T05:14:28.872Z,0
2017-12-04T05:15:28.615Z,0
2017-12-04T05:16:29.203Z,0
2017-12-04T05:17:29.172Z,0
2017-12-04T05:18:29.182Z,0
2017-12-04T05:19:28.679Z,0
2017-12-04T05:20:29.216Z,0
2017-12-04T05:21:29.216Z,0
2017-12-04T05:22:28.973Z,0
2017-12-04T05:23:28.963Z,0
2017-12-04T05:24:28.975Z,0
2017-12-04T05:25:29.255Z,0
2017-12-04T05:26:28.726Z,0
2017-12-04T05:27:29.277Z,0
2017-12-04T05:28:29.284Z,0
2017-12-04T05:29:29.296Z,0
2017-12-04T05:30:29.311Z,0
2017-12-04T05:31:29.061Z,0
2017-12-04T05:32:28.792Z,0
2017-12-04T05:33:29.341Z,0
2017-12-04T05:34:29.345Z,0
2017-12-04T05:35:29.357Z,0
2017-12-04T05:36:29.381Z,0
2017-12-04T05:37:29.383Z,0
2017-12-04T05:38:29.391Z,0
2017-12-04T05:39:29.396Z,0
2017-12-04T05:40:29.412Z,0
2017-12-04T05:41:29.427Z,0
2017-12-04T05:42:29.433Z,0
2017-12-04T05:43:29.198Z,0
2017-12-04T05:44:29.511Z,0
2017-12-04T05:45:29.468Z,0
2017-12-04T05:46:29.477Z,0
2017-12-04T05:47:29.491Z,0
2017-12-04T05:48:29.230Z,0
2017-12-04T05:49:29.255Z,0
2017-12-04T05:50:28.980Z,0
2017-12-04T05:51:29.266Z,0
2017-12-04T05:52:29.537Z,0
2017-12-04T05:53:29.549Z,0
2017-12-04T05:54:29.564Z,0
2017-12-04T05:55:29.572Z,0
2017-12-04T05:56:29.318Z,0
2017-12-04T05:57:29.626Z,0
2017-12-04T05:58:29.334Z,0
2017-12-04T05:59:29.623Z,0
2017-12-04T06:00:29.622Z,0
2017-12-04T06:01:29.633Z,0
2017-12-04T06:02:29.110Z,0
2017-12-04T06:03:29.666Z,0
2017-12-04T06:04:29.131Z,0
2017-12-04T06:05:29.827Z,0
2017-12-04T06:06:29.422Z,0
2017-12-04T06:07:29.429Z,0
2017-12-04T06:08:29.713Z,0
2017-12-04T06:09:29.720Z,0
2017-12-04T06:10:29.732Z,0
2017-12-04T06:11:29.757Z,0
2017-12-04T06:12:29.750Z,0
2017-12-04T06:13:29.759Z,0
2017-12-04T06:14:29.780Z,0
2017-12-04T06:15:29.283Z,0
2017-12-04T06:16:29.257Z,0
2017-12-04T06:17:29.536Z,0
2017-12-04T06:18:29.819Z,0
2017-12-04T06:19:29.557Z,0
2017-12-04T06:20:29.837Z,0
2017-12-04T06:21:29.845Z,0
2017-12-04T06:22:29.859Z,0
2017-12-04T06:23:29.872Z,0
2017-12-04T06:24:29.887Z,0
2017-12-04T06:25:29.624Z,0
2017-12-04T06:26:29.906Z,0
2017-12-04T06:27:29.642Z,0
2017-12-04T06:28:29.929Z,0
2017-12-04T06:29:29.670Z,0
2017-12-04T06:30:29.945Z,0
2017-12-04T06:31:30.049Z,0
2017-12-04T06:32:29.961Z,0
2017-12-04T06:33:29.973Z,0
2017-12-04T06:34:29.720Z,0
2017-12-04T06:35:29.998Z,0
2017-12-04T06:36:29.483Z,0
2017-12-04T06:37:29.750Z,0
2017-12-04T06:38:29.491Z,0
2017-12-04T06:39:29.772Z,4
2017-12-04T06:40:29.785Z,4
2017-12-04T06:41:30.069Z,4
2017-12-04T06:42:29.538Z,4
2017-12-04T06:43:29.551Z,4
2017-12-04T06:44:29.835Z,8
2017-12-04T06:45:30.110Z,8
2017-12-04T06:46:29.846Z,8
2017-12-04T06:47:29.587Z,8
2017-12-04T06:48:30.193Z,8
2017-12-04T06:49:29.616Z,8
2017-12-04T06:50:29.892Z,8
2017-12-04T06:51:30.170Z,8
2017-12-04T06:52:30.183Z,12
2017-12-04T06:53:29.651Z,8
2017-12-04T06:54:30.214Z,8
2017-12-04T06:55:30.215Z,8
2017-12-04T06:56:30.218Z,8
2017-12-04T06:57:29.971Z,12
2017-12-04T06:58:30.243Z,8
2017-12-04T06:59:30.028Z,8
2017-12-04T07:00:30.003Z,12
2017-12-04T07:01:30.062Z,12
2017-12-04T07:02:29.755Z,16
2017-12-04T07:03:30.043Z,20
2017-12-04T07:04:30.049Z,16
2017-12-04T07:05:30.221Z,20
2017-12-04T07:06:30.443Z,24
2017-12-04T07:07:30.078Z,24
2017-12-04T07:08:29.819Z,24
2017-12-04T07:09:30.362Z,24
2017-12-04T07:10:30.110Z,28
2017-12-04T07:11:30.116Z,24
2017-12-04T07:12:30.398Z,28
2017-12-04T07:13:30.142Z,32
2017-12-04T07:14:30.470Z,28
2017-12-04T07:15:30.165Z,24
2017-12-04T07:16:30.174Z,28
2017-12-04T07:17:30.497Z,28
2017-12-04T07:18:30.462Z,24
2017-12-04T07:19:30.507Z,36
2017-12-04T07:20:30.218Z,32
2017-12-04T07:21:30.539Z,44
2017-12-04T07:22:30.617Z,40
2017-12-04T07:23:30.516Z,56
2017-12-04T07:24:30.529Z,60
2017-12-04T07:25:30.278Z,60
2017-12-04T07:26:30.547Z,56
2017-12-04T07:27:30.328Z,64
2017-12-04T07:28:30.578Z,76
2017-12-04T07:29:30.049Z,68
2017-12-04T07:30:30.596Z,68
2017-12-04T07:31:30.603Z,72
2017-12-04T07:32:30.359Z,88
2017-12-04T07:33:30.380Z,92
2017-12-04T07:34:30.378Z,96
2017-12-04T07:35:30.378Z,88
2017-12-04T07:36:30.665Z,80
2017-12-04T07:37:30.678Z,76
2017-12-04T07:38:30.685Z,76
2017-12-04T07:39:30.700Z,80
2017-12-04T07:40:30.430Z,96
2017-12-04T07:41:30.713Z,92
2017-12-04T07:42:30.723Z,80
2017-12-04T07:43:30.740Z,64
2017-12-04T07:44:30.751Z,56
2017-12-04T07:45:30.758Z,76
2017-12-04T07:46:30.501Z,80
2017-12-04T07:47:30.779Z,84
2017-12-04T07:48:30.527Z,76
2017-12-04T07:49:30.806Z,96
2017-12-04T07:50:30.546Z,96
2017-12-04T07:51:30.556Z,132
2017-12-04T07:52:30.294Z,124
2017-12-04T07:53:30.843Z,100
2017-12-04T07:54:30.861Z,84
2017-12-04T07:55:30.329Z,96
2017-12-04T07:56:30.879Z,112
2017-12-04T07:57:30.627Z,136
2017-12-04T07:58:30.628Z,116
2017-12-04T07:59:30.907Z,136
2017-12-04T08:00:30.936Z,168
2017-12-04T08:01:30.932Z,180
2017-12-04T08:02:30.682Z,196
2017-12-04T08:03:30.685Z,212
2017-12-04T08:04:31.003Z,240
2017-12-04T08:05:30.986Z,256
2017-12-04T08:06:30.990Z,256
2017-12-04T08:07:31.007Z,240
2017-12-04T08:08:30.478Z,216
2017-12-04T08:09:30.769Z,176
2017-12-04T08:10:30.767Z,184
2017-12-04T08:11:31.041Z,188
2017-12-04T08:12:31.048Z,220
2017-12-04T08:13:30.801Z,312
2017-12-04T08:14:31.144Z,468
2017-12-04T08:15:31.091Z,400
2017-12-04T08:16:31.142Z,300
2017-12-04T08:17:31.110Z,320
2017-12-04T08:18:30.580Z,272
2017-12-04T08:19:31.140Z,280
2017-12-04T08:20:31.145Z,260
2017-12-04T08:21:30.892Z,228
2017-12-04T08:22:31.167Z,172
2017-12-04T08:23:30.913Z,128
2017-12-04T08:24:31.184Z,148
2017-12-04T08:25:31.210Z,212
2017-12-04T08:26:31.541Z,296
2017-12-04T08:27:31.239Z,288
2017-12-04T08:28:30.961Z,260
2017-12-04T08:29:30.980Z,236
2017-12-04T08:30:31.267Z,236
2017-12-04T08:31:31.265Z,320
2017-12-04T08:32:31.272Z,364
2017-12-04T08:33:31.018Z,384
2017-12-04T08:34:31.303Z,412
2017-12-04T08:35:31.313Z,476
2017-12-04T08:36:31.324Z,524
2017-12-04T08:37:31.331Z,544
2017-12-04T08:38:31.345Z,500
2017-12-04T08:39:31.355Z,508
2017-12-04T08:40:30.833Z,484
2017-12-04T08:41:30.842Z,432
2017-12-04T08:42:31.121Z,392
2017-12-04T08:43:31.130Z,404
2017-12-04T08:44:31.412Z,376
2017-12-04T08:45:31.382Z,376
2017-12-04T08:46:31.433Z,400
2017-12-04T08:47:31.179Z,372
2017-12-04T08:48:31.456Z,336
2017-12-04T08:49:31.464Z,380
2017-12-04T08:50:31.479Z,616
2017-12-04T08:51:31.499Z,688
2017-12-04T08:52:31.502Z,592
2017-12-04T08:53:31.556Z,664
2017-12-04T08:54:31.524Z,632
2017-12-04T08:55:31.269Z,560
2017-12-04T08:56:31.270Z,520
2017-12-04T08:57:31.579Z,536
2017-12-04T08:58:31.562Z,512
2017-12-04T08:59:31.311Z,484
2017-12-04T09:00:31.583Z,476
2017-12-04T09:01:31.329Z,452
2017-12-04T09:02:31.081Z,416
2017-12-04T09:03:31.617Z,488
2017-12-04T09:04:39.654Z,504
2017-12-04T09:05:31.649Z,488
2017-12-04T09:06:31.397Z,524
2017-12-04T09:07:31.668Z,512
2017-12-04T09:08:31.677Z,480
2017-12-04T09:09:31.162Z,496
2017-12-04T09:10:31.432Z,516
2017-12-04T09:11:31.453Z,496
2017-12-04T09:12:31.453Z,536
2017-12-04T09:13:31.737Z,524
2017-12-04T09:14:31.823Z,452
2017-12-04T09:15:31.482Z,516
2017-12-04T09:16:31.778Z,540
2017-12-04T09:17:31.783Z,516
2017-12-04T09:18:31.521Z,520
2017-12-04T09:19:31.799Z,556
2017-12-04T09:20:31.818Z,556
2017-12-04T09:21:31.554Z,544
2017-12-04T09:22:31.564Z,520
2017-12-04T09:23:31.042Z,548
2017-12-04T09:24:31.865Z,520
2017-12-04T09:25:31.875Z,516
2017-12-04T09:26:31.880Z,484
2017-12-04T09:27:31.891Z,448
2017-12-04T09:28:31.637Z,476
2017-12-04T09:29:31.645Z,524
2017-12-04T09:30:31.925Z,536
2017-12-04T09:31:31.942Z,520
2017-12-04T09:32:31.709Z,656
2017-12-04T09:33:31.957Z,700
2017-12-04T09:34:31.705Z,700
2017-12-04T09:35:31.981Z,724
2017-12-04T09:36:31.996Z,704
2017-12-04T09:37:32.012Z,644
2017-12-04T09:38:32.015Z,688
2017-12-04T09:39:31.760Z,704
2017-12-04T09:40:31.777Z,740
2017-12-04T09:41:31.791Z,648
2017-12-04T09:42:31.796Z,580
2017-12-04T09:43:31.544Z,568
2017-12-04T09:44:31.824Z,536
2017-12-04T09:45:32.099Z,528
2017-12-04T09:46:32.122Z,472
2017-12-04T09:47:31.595Z,500
2017-12-04T09:48:32.128Z,472
2017-12-04T09:49:31.886Z,336
2017-12-04T09:50:31.907Z,348
2017-12-04T09:51:32.172Z,244
2017-12-04T09:52:31.923Z,368
2017-12-04T09:53:32.190Z,348
2017-12-04T09:54:31.944Z,588
2017-12-04T09:55:32.209Z,400
2017-12-04T09:56:32.226Z,460
2017-12-04T09:57:31.994Z,652
2017-12-04T09:58:32.253Z,684
2017-12-04T09:59:31.464Z,620
2017-12-04T10:00:32.008Z,548
2017-12-04T10:01:31.750Z,596
2017-12-04T10:02:32.299Z,560
2017-12-04T10:03:32.306Z,604
2017-12-04T10:04:32.054Z,600
2017-12-04T10:05:31.799Z,564
2017-12-04T10:06:32.080Z,660
2017-12-04T10:07:32.083Z,696
2017-12-04T10:08:31.832Z,704
2017-12-04T10:09:32.114Z,768
2017-12-04T10:10:32.123Z,756
2017-12-04T10:11:32.419Z,708
2017-12-04T10:12:32.195Z,744
2017-12-04T10:13:32.428Z,780
2017-12-04T10:14:32.170Z,820
2017-12-04T10:15:32.469Z,884
2017-12-04T10:16:32.473Z,820
2017-12-04T10:17:32.209Z,836
2017-12-04T10:18:32.538Z,740
2017-12-04T10:19:31.960Z,812
2017-12-04T10:20:32.281Z,816
2017-12-04T10:21:32.530Z,908
2017-12-04T10:22:32.533Z,924
2017-12-04T10:23:32.278Z,840
2017-12-04T10:24:32.023Z,848
2017-12-04T10:25:32.572Z,864
2017-12-04T10:26:32.307Z,768
2017-12-04T10:27:32.586Z,852
2017-12-04T10:28:32.610Z,704
2017-12-04T10:29:32.611Z,808
2017-12-04T10:30:32.385Z,784
2017-12-04T10:31:32.106Z,972
2017-12-04T10:32:32.650Z,832
2017-12-04T10:33:32.655Z,916
2017-12-04T10:34:32.668Z,956
2017-12-04T10:35:32.687Z,804
2017-12-04T10:36:32.161Z,724
2017-12-04T10:37:32.711Z,784
2017-12-04T10:38:32.723Z,884
2017-12-04T10:39:32.198Z,884
2017-12-04T10:40:32.208Z,804
2017-12-04T10:41:32.761Z,856
2017-12-04T10:42:32.814Z,808
2017-12-04T10:43:32.779Z,760
2017-12-04T10:44:32.528Z,780
2017-12-04T10:45:32.531Z,696
2017-12-04T10:46:32.548Z,612
2017-12-04T10:47:32.826Z,680
2017-12-04T10:48:32.569Z,760
2017-12-04T10:49:32.862Z,668
2017-12-04T10:50:32.595Z,624
2017-12-04T10:51:32.875Z,632
2017-12-04T10:52:32.883Z,648
2017-12-04T10:53:32.636Z,632
2017-12-04T10:54:32.645Z,624
2017-12-04T10:55:32.921Z,696
2017-12-04T10:56:32.937Z,608
2017-12-04T10:57:32.954Z,544
2017-12-04T10:58:32.696Z,548
2017-12-04T10:59:32.972Z,700
2017-12-04T11:00:33.002Z,660
2017-12-04T11:01:32.998Z,532
2017-12-04T11:02:33.024Z,472
2017-12-04T11:03:33.083Z,468
2017-12-04T11:04:32.492Z,564
2017-12-04T11:05:32.815Z,500
2017-12-04T11:06:32.792Z,504
2017-12-04T11:07:32.804Z,480
2017-12-04T11:08:32.281Z,432
2017-12-04T11:09:33.092Z,444
2017-12-04T11:10:33.105Z,492
2017-12-04T11:11:33.319Z,452
2017-12-04T11:12:33.134Z,508
2017-12-04T11:13:33.143Z,536
2017-12-04T11:14:33.165Z,512
2017-12-04T11:15:32.897Z,544
2017-12-04T11:16:33.180Z,656
2017-12-04T11:17:32.920Z,552
2017-12-04T11:18:33.220Z,576
2017-12-04T11:19:32.947Z,576
2017-12-04T11:20:32.692Z,576
2017-12-04T11:21:32.975Z,652
2017-12-04T11:22:32.985Z,580
2017-12-04T11:23:32.999Z,572
2017-12-04T11:24:33.281Z,568
2017-12-04T11:25:33.286Z,560
2017-12-04T11:26:33.036Z,696
2017-12-04T11:27:33.044Z,660
2017-12-04T11:28:33.334Z,636
2017-12-04T11:29:33.074Z,544
2017-12-04T11:30:33.354Z,548
2017-12-04T11:31:33.368Z,728
2017-12-04T11:32:33.380Z,800
2017-12-04T11:33:33.415Z,636
2017-12-04T11:34:33.131Z,620
2017-12-04T11:35:33.143Z,808
2017-12-04T11:36:32.891Z,792
2017-12-04T11:37:33.187Z,772
2017-12-04T11:38:33.444Z,720
2017-12-04T11:39:33.459Z,580
2017-12-04T11:40:33.480Z,680
2017-12-04T11:41:33.239Z,568
2017-12-04T11:42:33.500Z,568
2017-12-04T11:43:33.507Z,400
2017-12-04T11:44:33.254Z,396
2017-12-04T11:45:33.267Z,512
2017-12-04T11:46:33.551Z,520
2017-12-04T11:47:33.024Z,584
2017-12-04T11:48:33.304Z,600
2017-12-04T11:49:33.579Z,456
2017-12-04T11:50:33.594Z,384
2017-12-04T11:51:33.615Z,416
2017-12-04T11:52:33.617Z,524
2017-12-04T11:53:33.385Z,648
2017-12-04T11:54:33.651Z,668
2017-12-04T11:55:33.661Z,552
2017-12-04T11:56:33.425Z,556
2017-12-04T11:57:33.423Z,640
2017-12-04T11:58:33.696Z,364
2017-12-04T11:59:33.173Z,580
2017-12-04T12:00:33.458Z,608
2017-12-04T12:01:33.740Z,644
2017-12-04T12:02:33.485Z,580
2017-12-04T12:03:33.495Z,388
2017-12-04T12:04:33.510Z,400
2017-12-04T12:05:33.514Z,692
2017-12-04T12:06:33.527Z,648
2017-12-04T12:07:33.273Z,676
2017-12-04T12:08:33.283Z,380
2017-12-04T12:09:33.563Z,364
2017-12-04T12:10:33.574Z,488
2017-12-04T12:11:33.854Z,436
2017-12-04T12:12:33.605Z,428
2017-12-04T12:13:33.620Z,400
2017-12-04T12:14:33.640Z,336
2017-12-04T12:15:33.376Z,304
2017-12-04T12:16:33.648Z,336
2017-12-04T12:17:33.671Z,272
2017-12-04T12:18:33.658Z,384
2017-12-04T12:19:33.936Z,408
2017-12-04T12:26:05.792Z,880
2017-12-04T12:27:05.781Z,656
2017-12-04T12:28:05.538Z,960
2017-12-04T12:29:05.813Z,912
2017-12-04T12:30:05.562Z,868
2017-12-04T12:31:05.832Z,772
2017-12-04T12:32:06.122Z,756
2017-12-04T12:33:05.855Z,684
2017-12-04T12:34:05.637Z,668
2017-12-04T12:35:05.884Z,580
2017-12-04T12:36:06.161Z,520
2017-12-04T12:37:05.641Z,472
2017-12-04T12:38:05.666Z,440
2017-12-04T12:39:06.206Z,512
2017-12-04T12:40:05.998Z,736
2017-12-04T12:41:05.968Z,668
2017-12-04T12:42:06.246Z,780
2017-12-04T12:43:05.990Z,720
2017-12-04T12:44:06.016Z,688
2017-12-04T12:45:06.292Z,700
2017-12-04T12:46:06.309Z,652
2017-12-04T12:47:05.778Z,724
2017-12-04T12:48:06.322Z,692
2017-12-04T12:49:06.071Z,788
2017-12-04T12:50:06.362Z,820
2017-12-04T12:51:06.103Z,824
2017-12-04T12:52:06.107Z,744
2017-12-04T12:53:06.117Z,768
2017-12-04T12:54:06.236Z,776
2017-12-04T12:55:05.871Z,884
2017-12-04T12:56:05.894Z,852
2017-12-04T12:57:06.444Z,764
2017-12-04T12:58:05.927Z,700
2017-12-04T12:59:06.193Z,704
2017-12-04T13:00:06.472Z,796
2017-12-04T13:01:06.489Z,552
2017-12-04T13:02:06.500Z,464
2017-12-04T13:03:06.517Z,452
2017-12-04T13:04:06.528Z,412
2017-12-04T13:05:05.735Z,476
2017-12-04T13:06:06.548Z,484
2017-12-04T13:07:06.557Z,420
2017-12-04T13:08:06.584Z,324
2017-12-04T13:09:06.687Z,260
2017-12-04T13:10:06.329Z,264
2017-12-04T13:11:06.344Z,344
2017-12-04T13:12:06.628Z,384
2017-12-04T13:13:06.370Z,464
2017-12-04T13:14:06.703Z,596
2017-12-04T13:15:06.401Z,728
2017-12-04T13:16:06.137Z,792
2017-12-04T13:17:06.691Z,472
2017-12-04T13:18:06.704Z,380
2017-12-04T13:19:06.724Z,200
2017-12-04T13:20:06.464Z,112
2017-12-04T13:21:06.739Z,88
2017-12-04T13:22:06.757Z,52
2017-12-04T13:23:06.765Z,36
2017-12-04T13:24:06.774Z,64
2017-12-04T13:25:06.814Z,72
2017-12-04T13:26:06.534Z,72
2017-12-04T13:27:06.543Z,68
2017-12-04T13:28:06.555Z,76
2017-12-04T13:29:06.303Z,92
2017-12-04T13:30:06.861Z,80
2017-12-04T13:31:06.596Z,72
2017-12-04T13:32:06.883Z,72
2017-12-04T13:33:06.889Z,68
2017-12-04T13:34:06.900Z,76
2017-12-04T13:35:06.915Z,80
2017-12-04T13:36:06.662Z,84
2017-12-04T13:37:06.678Z,104
2017-12-04T13:38:06.687Z,128
2017-12-04T13:39:06.969Z,144
2017-12-04T13:40:06.981Z,152
2017-12-04T13:41:06.473Z,160
2017-12-04T13:42:06.734Z,172
2017-12-04T13:43:07.017Z,196
2017-12-04T13:44:06.760Z,208
2017-12-04T13:45:06.773Z,196
2017-12-04T13:46:07.055Z,192
2017-12-04T13:47:06.833Z,224
2017-12-04T13:48:07.097Z,260
2017-12-04T13:49:07.087Z,312
2017-12-04T13:50:07.100Z,404
2017-12-04T13:51:06.851Z,440
2017-12-04T13:52:07.132Z,420
2017-12-04T13:53:07.142Z,376
2017-12-04T13:54:06.878Z,336
2017-12-04T13:55:06.897Z,296
2017-12-04T13:56:07.175Z,284
2017-12-04T13:57:07.186Z,256
2017-12-04T13:58:06.932Z,248
2017-12-04T13:59:07.219Z,232
2017-12-04T14:00:07.238Z,220
2017-12-04T14:01:07.239Z,212
2017-12-04T14:02:07.252Z,232
2017-12-04T14:03:07.263Z,272
2017-12-04T14:04:07.005Z,348
2017-12-04T14:05:07.291Z,340
2017-12-04T14:06:07.297Z,312
2017-12-04T14:07:07.305Z,280
2017-12-04T14:08:07.316Z,376
2017-12-04T14:09:07.338Z,364
2017-12-04T14:10:07.347Z,356
2017-12-04T14:11:07.089Z,340
2017-12-04T14:12:07.106Z,284
2017-12-04T14:13:07.381Z,232
2017-12-04T14:14:06.856Z,252
2017-12-04T14:15:07.142Z,244
2017-12-04T14:16:07.426Z,260
2017-12-04T14:17:07.426Z,244
2017-12-04T14:18:07.168Z,248
2017-12-04T14:19:07.449Z,284
2017-12-04T14:20:07.198Z,300
2017-12-04T14:21:06.938Z,312
2017-12-04T14:22:07.495Z,280
2017-12-04T14:23:07.257Z,304